sensor_id;sensor_type;location;lat;lon;timestamp;pressure;altitude;pressure_sealevel;temperature;humidity
52343;BME280;38277;51.972;4.624;2022-12-18T00:00:14;103000.0;;;-1.0;86.0
52343;BME280;38277;51.972;4.624;2022-12-18T00:09:27;102980.0;;;-1.0;85.5
52343;BME280;38277;51.972;4.624;2022-12-18T00:14:42;102980.0;;;-1.1;85.5
52343;BME280;38277;51.972;4.624;2022-12-18T00:18:16;102980.0;;;-1.1;85.5
52343;BME280;38277;51.972;4.624;2022-12-18T00:27:06;102970.0;;;-1.1;85.5
52343;BME280;38277;51.972;4.624;2022-12-18T00:32:21;102970.0;;;-1.2;85.5
52343;BME280;38277;51.972;4.624;2022-12-18T00:36:12;102980.0;;;-1.2;85.5
52343;BME280;38277;51.972;4.624;2022-12-18T00:45:08;102970.0;;;-1.2;85.5
52343;BME280;38277;51.972;4.624;2022-12-18T00:50:34;102970.0;;;-1.2;85.0
52343;BME280;38277;51.972;4.624;2022-12-18T00:54:23;102980.0;;;-1.3;85.0
52343;BME280;38277;51.972;4.624;2022-12-18T01:03:22;102980.0;;;-1.4;85.5
52343;BME280;38277;51.972;4.624;2022-12-18T01:08:44;102980.0;;;-1.4;85.5
52343;BME280;38277;51.972;4.624;2022-12-18T01:12:15;102970.0;;;-1.4;85.5
52343;BME280;38277;51.972;4.624;2022-12-18T01:21:23;103000.0;;;-1.4;85.5
52343;BME280;38277;51.972;4.624;2022-12-18T01:26:36;102990.0;;;-1.5;85.5
52343;BME280;38277;51.972;4.624;2022-12-18T01:30:10;102990.0;;;-1.5;85.5
52343;BME280;38277;51.972;4.624;2022-12-18T01:39:12;103010.0;;;-1.5;85.5
52343;BME280;38277;51.972;4.624;2022-12-18T01:45:00;103010.0;;;-1.6;85.5
52343;BME280;38277;51.972;4.624;2022-12-18T01:48:17;103010.0;;;-1.6;85.5
52343;BME280;38277;51.972;4.624;2022-12-18T01:57:10;103020.0;;;-1.7;85.0
52343;BME280;38277;51.972;4.624;2022-12-18T02:02:28;103030.0;;;-1.7;85.0
52343;BME280;38277;51.972;4.624;2022-12-18T02:06:20;103040.0;;;-1.7;85.0
52343;BME280;38277;51.972;4.624;2022-12-18T02:15:26;103020.0;;;-1.8;85.5
52343;BME280;38277;51.972;4.624;2022-12-18T02:25:17;103010.0;;;-1.8;85.0
52343;BME280;38277;51.972;4.624;2022-12-18T02:33:27;103010.0;;;-1.8;85.5
52343;BME280;38277;51.972;4.624;2022-12-18T02:38:48;103020.0;;;-1.8;85.5
52343;BME280;38277;51.972;4.624;2022-12-18T02:42:32;103020.0;;;-1.8;85.5
52343;BME280;38277;51.972;4.624;2022-12-18T02:51:50;102990.0;;;-1.8;85.5
52343;BME280;38277;51.972;4.624;2022-12-18T02:57:10;102990.0;;;-1.9;85.5
52343;BME280;38277;51.972;4.624;2022-12-18T03:00:10;102980.0;;;-1.9;85.5
52343;BME280;38277;51.972;4.624;2022-12-18T03:09:39;102960.0;;;-2.0;85.0
52343;BME280;38277;51.972;4.624;2022-12-18T03:14:37;102960.0;;;-2.0;85.0
52343;BME280;38277;51.972;4.624;2022-12-18T03:18:23;102940.0;;;-2.1;85.0
52343;BME280;38277;51.972;4.624;2022-12-18T03:27:14;102950.0;;;-2.1;85.0
52343;BME280;38277;51.972;4.624;2022-12-18T03:32:47;102950.0;;;-2.1;85.0
52343;BME280;38277;51.972;4.624;2022-12-18T03:36:14;102940.0;;;-2.2;84.5
52343;BME280;38277;51.972;4.624;2022-12-18T03:45:54;102940.0;;;-2.3;84.5
52343;BME280;38277;51.972;4.624;2022-12-18T03:49:56;102940.0;;;-2.4;84.5
52343;BME280;38277;51.972;4.624;2022-12-18T03:54:23;102940.0;;;-2.4;85.0
52343;BME280;38277;51.972;4.624;2022-12-18T03:58:45;102930.0;;;-2.4;85.0
52343;BME280;38277;51.972;4.624;2022-12-18T04:04:09;102930.0;;;-2.5;85.0
52343;BME280;38277;51.972;4.624;2022-12-18T04:07:38;102940.0;;;-2.5;84.5
52343;BME280;38277;51.972;4.624;2022-12-18T04:12:19;102940.0;;;-2.5;84.5
52343;BME280;38277;51.972;4.624;2022-12-18T04:16:58;102940.0;;;-2.6;84.5
52343;BME280;38277;51.972;4.624;2022-12-18T04:22:00;102940.0;;;-2.6;84.5
52343;BME280;38277;51.972;4.624;2022-12-18T04:25:59;102940.0;;;-2.6;84.5
52343;BME280;38277;51.972;4.624;2022-12-18T04:30:10;102940.0;;;-2.7;84.5
52343;BME280;38277;51.972;4.624;2022-12-18T04:40:06;102950.0;;;-2.7;84.5
52343;BME280;38277;51.972;4.624;2022-12-18T04:43:52;102960.0;;;-2.8;84.5
52343;BME280;38277;51.972;4.624;2022-12-18T04:48:12;102960.0;;;-2.8;84.5
52343;BME280;38277;51.972;4.624;2022-12-18T04:58:19;102950.0;;;-3.0;84.5
52343;BME280;38277;51.972;4.624;2022-12-18T05:01:39;102950.0;;;-3.0;84.5
52343;BME280;38277;51.972;4.624;2022-12-18T05:06:20;102950.0;;;-3.1;84.5
52343;BME280;38277;51.972;4.624;2022-12-18T05:15:53;102960.0;;;-3.3;84.5
52343;BME280;38277;51.972;4.624;2022-12-18T05:19:53;102960.0;;;-3.4;84.0
52343;BME280;38277;51.972;4.624;2022-12-18T05:24:13;102960.0;;;-3.4;84.0
52343;BME280;38277;51.972;4.624;2022-12-18T05:33:52;102950.0;;;-3.5;84.5
52343;BME280;38277;51.972;4.624;2022-12-18T05:37:50;102940.0;;;-3.5;84.5
52343;BME280;38277;51.972;4.624;2022-12-18T05:42:21;102940.0;;;-3.5;84.5
52343;BME280;38277;51.972;4.624;2022-12-18T05:46:58;102950.0;;;-3.5;84.5
52343;BME280;38277;51.972;4.624;2022-12-18T05:52:17;102940.0;;;-3.5;84.0
52343;BME280;38277;51.972;4.624;2022-12-18T05:56:00;102930.0;;;-3.6;84.0
52343;BME280;38277;51.972;4.624;2022-12-18T06:00:16;102930.0;;;-3.6;83.5
52343;BME280;38277;51.972;4.624;2022-12-18T06:09:54;102930.0;;;-3.7;83.5
52343;BME280;38277;51.972;4.624;2022-12-18T06:13:56;102920.0;;;-3.8;84.0
52343;BME280;38277;51.972;4.624;2022-12-18T06:18:15;102910.0;;;-3.8;84.0
52343;BME280;38277;51.972;4.624;2022-12-18T06:28:07;102900.0;;;-3.9;83.5
52343;BME280;38277;51.972;4.624;2022-12-18T06:32:03;102910.0;;;-3.9;84.0
52343;BME280;38277;51.972;4.624;2022-12-18T06:36:21;102900.0;;;-3.9;83.5
52343;BME280;38277;51.972;4.624;2022-12-18T06:49:51;102890.0;;;-4.0;83.0
52343;BME280;38277;51.972;4.624;2022-12-18T06:54:13;102880.0;;;-4.1;83.0
52343;BME280;38277;51.972;4.624;2022-12-18T07:08:03;102870.0;;;-4.1;83.0
52343;BME280;38277;51.972;4.624;2022-12-18T07:12:19;102860.0;;;-4.2;83.0
52343;BME280;38277;51.972;4.624;2022-12-18T07:21:56;102830.0;;;-4.2;83.0
52343;BME280;38277;51.972;4.624;2022-12-18T07:26:06;102810.0;;;-4.2;83.0
52343;BME280;38277;51.972;4.624;2022-12-18T07:30:12;102800.0;;;-4.2;83.0
52343;BME280;38277;51.972;4.624;2022-12-18T07:39:56;102790.0;;;-4.2;83.0
52343;BME280;38277;51.972;4.624;2022-12-18T07:43:51;102800.0;;;-4.2;82.5
52343;BME280;38277;51.972;4.624;2022-12-18T07:48:19;102810.0;;;-4.2;82.5
52343;BME280;38277;51.972;4.624;2022-12-18T07:58:16;102800.0;;;-4.2;82.5
52343;BME280;38277;51.972;4.624;2022-12-18T08:01:45;102810.0;;;-4.2;82.0
52343;BME280;38277;51.972;4.624;2022-12-18T08:06:24;102800.0;;;-4.1;82.5
52343;BME280;38277;51.972;4.624;2022-12-18T08:16:17;102800.0;;;-4.1;82.0
52343;BME280;38277;51.972;4.624;2022-12-18T08:19:42;102800.0;;;-4.0;82.0
52343;BME280;38277;51.972;4.624;2022-12-18T08:24:06;102780.0;;;-4.0;82.0
52343;BME280;38277;51.972;4.624;2022-12-18T08:33:55;102780.0;;;-3.9;82.0
52343;BME280;38277;51.972;4.624;2022-12-18T08:37:55;102780.0;;;-3.8;82.0
52343;BME280;38277;51.972;4.624;2022-12-18T08:42:25;102790.0;;;-3.7;82.0
52343;BME280;38277;51.972;4.624;2022-12-18T08:55:39;102830.0;;;-3.4;82.0
52343;BME280;38277;51.972;4.624;2022-12-18T09:00:29;102830.0;;;-3.3;82.0
52343;BME280;38277;51.972;4.624;2022-12-18T09:14:01;102810.0;;;-3.0;81.5
52343;BME280;38277;51.972;4.624;2022-12-18T09:18:28;102800.0;;;-2.8;81.0
52343;BME280;38277;51.972;4.624;2022-12-18T09:28:06;102760.0;;;-2.7;80.5
52343;BME280;38277;51.972;4.624;2022-12-18T09:31:48;102760.0;;;-2.6;80.5
52343;BME280;38277;51.972;4.624;2022-12-18T09:36:11;102790.0;;;-2.5;80.5
52343;BME280;38277;51.972;4.624;2022-12-18T09:46:10;102770.0;;;-2.3;80.0
52343;BME280;38277;51.972;4.624;2022-12-18T09:49:42;102780.0;;;-2.1;79.5
52343;BME280;38277;51.972;4.624;2022-12-18T09:54:12;102790.0;;;-2.0;79.5
52343;BME280;38277;51.972;4.624;2022-12-18T10:04:00;102760.0;;;-1.8;79.0
52343;BME280;38277;51.972;4.624;2022-12-18T10:08:07;102750.0;;;-1.7;78.5
52343;BME280;38277;51.972;4.624;2022-12-18T10:12:38;102760.0;;;-1.7;78.5
52343;BME280;38277;51.972;4.624;2022-12-18T10:17:19;102750.0;;;-1.6;78.5
52343;BME280;38277;51.972;4.624;2022-12-18T10:22:21;102730.0;;;-1.6;78.5
52343;BME280;38277;51.972;4.624;2022-12-18T10:26:06;102720.0;;;-1.5;78.0
52343;BME280;38277;51.972;4.624;2022-12-18T10:30:25;102730.0;;;-1.5;78.0
52343;BME280;38277;51.972;4.624;2022-12-18T10:40:15;102710.0;;;-1.3;77.5
52343;BME280;38277;51.972;4.624;2022-12-18T10:43:45;102720.0;;;-1.2;77.0
52343;BME280;38277;51.972;4.624;2022-12-18T10:48:22;102710.0;;;-1.1;77.5
52343;BME280;38277;51.972;4.624;2022-12-18T10:57:52;102710.0;;;-0.9;76.5
52343;BME280;38277;51.972;4.624;2022-12-18T11:02:45;102710.0;;;-0.8;76.5
52343;BME280;38277;51.972;4.624;2022-12-18T11:06:15;102700.0;;;-0.8;76.5
52343;BME280;38277;51.972;4.624;2022-12-18T11:15:15;102710.0;;;-0.6;76.5
52343;BME280;38277;51.972;4.624;2022-12-18T11:20:35;102700.0;;;-0.4;76.5
52343;BME280;38277;51.972;4.624;2022-12-18T11:24:18;102700.0;;;-0.2;76.0
52343;BME280;38277;51.972;4.624;2022-12-18T11:33:21;102670.0;;;0.0;75.5
52343;BME280;38277;51.972;4.624;2022-12-18T11:38:35;102670.0;;;0.0;75.0
52343;BME280;38277;51.972;4.624;2022-12-18T11:42:25;102670.0;;;0.0;74.5
52343;BME280;38277;51.972;4.624;2022-12-18T11:51:43;102640.0;;;0.0;74.5
52343;BME280;38277;51.972;4.624;2022-12-18T11:57:02;102610.0;;;0.0;74.0
52343;BME280;38277;51.972;4.624;2022-12-18T12:00:29;102600.0;;;0.0;74.0
52343;BME280;38277;51.972;4.624;2022-12-18T12:10:57;102590.0;;;0.0;73.5
52343;BME280;38277;51.972;4.624;2022-12-18T12:16:32;102570.0;;;0.0;74.0
52343;BME280;38277;51.972;4.624;2022-12-18T12:21:02;102570.0;;;0.0;74.0
52343;BME280;38277;51.972;4.624;2022-12-18T12:30:55;102570.0;;;0.1;74.0
52343;BME280;38277;51.972;4.624;2022-12-18T12:36:35;102550.0;;;0.1;74.0
52343;BME280;38277;51.972;4.624;2022-12-18T12:39:34;102560.0;;;0.2;74.0
52343;BME280;38277;51.972;4.624;2022-12-18T12:45:42;102560.0;;;0.2;74.0
52343;BME280;38277;51.972;4.624;2022-12-18T12:50:46;102560.0;;;0.2;74.0
52343;BME280;38277;51.972;4.624;2022-12-18T12:54:13;102550.0;;;0.2;74.0
52343;BME280;38277;51.972;4.624;2022-12-18T13:03:54;102550.0;;;0.2;74.0
52343;BME280;38277;51.972;4.624;2022-12-18T13:08:58;102530.0;;;0.2;74.5
52343;BME280;38277;51.972;4.624;2022-12-18T13:12:15;102530.0;;;0.3;74.5
52343;BME280;38277;51.972;4.624;2022-12-18T13:21:24;102520.0;;;0.3;75.0
52343;BME280;38277;51.972;4.624;2022-12-18T13:26:32;102510.0;;;0.4;74.5
52343;BME280;38277;51.972;4.624;2022-12-18T13:30:43;102500.0;;;0.4;74.5
52343;BME280;38277;51.972;4.624;2022-12-18T13:39:33;102490.0;;;0.4;75.0
52343;BME280;38277;51.972;4.624;2022-12-18T13:44:48;102470.0;;;0.4;75.0
52343;BME280;38277;51.972;4.624;2022-12-18T13:48:34;102460.0;;;0.4;75.0
52343;BME280;38277;51.972;4.624;2022-12-18T13:53:50;102460.0;;;0.4;75.0
52343;BME280;38277;51.972;4.624;2022-12-18T13:57:26;102460.0;;;0.4;75.0
52343;BME280;38277;51.972;4.624;2022-12-18T14:02:45;102450.0;;;0.4;75.0
52343;BME280;38277;51.972;4.624;2022-12-18T14:06:14;102440.0;;;0.4;75.0
52343;BME280;38277;51.972;4.624;2022-12-18T14:15:31;102440.0;;;0.4;75.0
52343;BME280;38277;51.972;4.624;2022-12-18T14:24:18;102430.0;;;0.4;74.5
52343;BME280;38277;51.972;4.624;2022-12-18T14:33:31;102410.0;;;0.3;74.5
52343;BME280;38277;51.972;4.624;2022-12-18T14:38:42;102410.0;;;0.3;74.5
52343;BME280;38277;51.972;4.624;2022-12-18T14:42:26;102400.0;;;0.3;75.0
52343;BME280;38277;51.972;4.624;2022-12-18T14:46:48;102390.0;;;0.3;75.0
52343;BME280;38277;51.972;4.624;2022-12-18T14:52:20;102390.0;;;0.3;75.5
52343;BME280;38277;51.972;4.624;2022-12-18T14:56:22;102360.0;;;0.4;75.5
52343;BME280;38277;51.972;4.624;2022-12-18T15:00:16;102370.0;;;0.4;75.5
52343;BME280;38277;51.972;4.624;2022-12-18T15:09:22;102380.0;;;0.4;75.0
52343;BME280;38277;51.972;4.624;2022-12-18T15:14:41;102370.0;;;0.3;75.0
52343;BME280;38277;51.972;4.624;2022-12-18T15:18:14;102370.0;;;0.3;75.0
52343;BME280;38277;51.972;4.624;2022-12-18T15:27:31;102370.0;;;0.3;75.0
52343;BME280;38277;51.972;4.624;2022-12-18T15:32:32;102370.0;;;0.3;75.0
52343;BME280;38277;51.972;4.624;2022-12-18T15:36:21;102370.0;;;0.3;75.5
52343;BME280;38277;51.972;4.624;2022-12-18T15:45:25;102360.0;;;0.4;75.5
52343;BME280;38277;51.972;4.624;2022-12-18T15:50:29;102350.0;;;0.4;75.5
52343;BME280;38277;51.972;4.624;2022-12-18T15:54:20;102350.0;;;0.4;75.5
52343;BME280;38277;51.972;4.624;2022-12-18T16:03:28;102330.0;;;0.4;75.5
52343;BME280;38277;51.972;4.624;2022-12-18T16:08:42;102330.0;;;0.5;75.5
52343;BME280;38277;51.972;4.624;2022-12-18T16:12:15;102320.0;;;0.5;75.0
52343;BME280;38277;51.972;4.624;2022-12-18T16:25:40;102310.0;;;0.6;74.5
52343;BME280;38277;51.972;4.624;2022-12-18T16:40:12;102290.0;;;0.6;75.0
52343;BME280;38277;51.972;4.624;2022-12-18T16:43:56;102280.0;;;0.7;74.5
52343;BME280;38277;51.972;4.624;2022-12-18T16:48:12;102280.0;;;0.7;74.5
52343;BME280;38277;51.972;4.624;2022-12-18T16:52:44;102280.0;;;0.8;74.5
52343;BME280;38277;51.972;4.624;2022-12-18T16:58:11;102270.0;;;0.8;74.5
52343;BME280;38277;51.972;4.624;2022-12-18T17:01:49;102280.0;;;0.9;74.5
52343;BME280;38277;51.972;4.624;2022-12-18T17:06:13;102270.0;;;0.9;74.5
52343;BME280;38277;51.972;4.624;2022-12-18T17:11:03;102260.0;;;1.0;74.0
52343;BME280;38277;51.972;4.624;2022-12-18T17:15:52;102250.0;;;1.0;74.0
52343;BME280;38277;51.972;4.624;2022-12-18T17:19:36;102250.0;;;1.1;74.0
52343;BME280;38277;51.972;4.624;2022-12-18T17:24:23;102260.0;;;1.2;73.5
52343;BME280;38277;51.972;4.624;2022-12-18T17:28:57;102260.0;;;1.2;73.5
52343;BME280;38277;51.972;4.624;2022-12-18T17:34:18;102260.0;;;1.3;73.0
52343;BME280;38277;51.972;4.624;2022-12-18T17:37:46;102250.0;;;1.3;72.5
52343;BME280;38277;51.972;4.624;2022-12-18T17:42:16;102250.0;;;1.4;71.5
52343;BME280;38277;51.972;4.624;2022-12-18T17:51:52;102240.0;;;1.5;71.0
52343;BME280;38277;51.972;4.624;2022-12-18T17:55:52;102240.0;;;1.5;71.0
52343;BME280;38277;51.972;4.624;2022-12-18T18:00:25;102240.0;;;1.6;71.0
52343;BME280;38277;51.972;4.624;2022-12-18T18:04:56;102240.0;;;1.6;70.5
52343;BME280;38277;51.972;4.624;2022-12-18T18:10:18;102250.0;;;1.6;70.5
52343;BME280;38277;51.972;4.624;2022-12-18T18:13:45;102240.0;;;1.6;70.5
52343;BME280;38277;51.972;4.624;2022-12-18T18:18:07;102250.0;;;1.7;71.0
52343;BME280;38277;51.972;4.624;2022-12-18T18:22:43;102250.0;;;1.7;70.5
52343;BME280;38277;51.972;4.624;2022-12-18T18:27:27;102250.0;;;1.7;70.5
52343;BME280;38277;51.972;4.624;2022-12-18T18:32:04;102240.0;;;1.7;71.0
52343;BME280;38277;51.972;4.624;2022-12-18T18:36:09;102230.0;;;1.8;71.0
52343;BME280;38277;51.972;4.624;2022-12-18T18:40:57;102230.0;;;1.8;72.0
52343;BME280;38277;51.972;4.624;2022-12-18T18:45:15;102240.0;;;1.8;72.5
52343;BME280;38277;51.972;4.624;2022-12-18T18:49:46;102230.0;;;1.7;73.5
52343;BME280;38277;51.972;4.624;2022-12-18T18:55:17;102230.0;;;1.7;74.5
52343;BME280;38277;51.972;4.624;2022-12-18T18:59:01;102230.0;;;1.8;75.0
52343;BME280;38277;51.972;4.624;2022-12-18T19:04:06;102230.0;;;1.7;75.5
52343;BME280;38277;51.972;4.624;2022-12-18T19:07:51;102220.0;;;1.7;76.0
52343;BME280;38277;51.972;4.624;2022-12-18T19:12:10;102220.0;;;1.7;77.0
52343;BME280;38277;51.972;4.624;2022-12-18T19:16:46;102230.0;;;1.7;77.5
52343;BME280;38277;51.972;4.624;2022-12-18T19:25:51;102220.0;;;1.7;78.5
52343;BME280;38277;51.972;4.624;2022-12-18T19:31:03;102220.0;;;1.8;79.0
52343;BME280;38277;51.972;4.624;2022-12-18T19:34:44;102220.0;;;1.7;79.0
52343;BME280;38277;51.972;4.624;2022-12-18T19:39:10;102220.0;;;1.7;79.5
52343;BME280;38277;51.972;4.624;2022-12-18T19:43:37;102210.0;;;1.8;80.0
52343;BME280;38277;51.972;4.624;2022-12-18T19:48:13;102210.0;;;1.8;80.0
52343;BME280;38277;51.972;4.624;2022-12-18T19:52:37;102200.0;;;1.8;80.5
52343;BME280;38277;51.972;4.624;2022-12-18T19:58:03;102210.0;;;1.8;81.0
52343;BME280;38277;51.972;4.624;2022-12-18T20:02:25;102210.0;;;1.8;81.0
52343;BME280;38277;51.972;4.624;2022-12-18T20:06:57;102220.0;;;1.8;81.5
52343;BME280;38277;51.972;4.624;2022-12-18T20:11:03;102200.0;;;1.8;82.0
52343;BME280;38277;51.972;4.624;2022-12-18T20:15:20;102190.0;;;1.8;82.0
52343;BME280;38277;51.972;4.624;2022-12-18T20:20:05;102190.0;;;1.8;82.5
52343;BME280;38277;51.972;4.624;2022-12-18T20:24:26;102180.0;;;1.9;83.0
52343;BME280;38277;51.972;4.624;2022-12-18T20:28:44;102170.0;;;1.9;83.0
52343;BME280;38277;51.972;4.624;2022-12-18T20:33:34;102160.0;;;1.9;83.5
52343;BME280;38277;51.972;4.624;2022-12-18T20:38:26;102160.0;;;1.9;83.5
52343;BME280;38277;51.972;4.624;2022-12-18T20:43:16;102150.0;;;1.9;84.0
52343;BME280;38277;51.972;4.624;2022-12-18T20:46:52;102150.0;;;1.9;84.0
52343;BME280;38277;51.972;4.624;2022-12-18T20:51:25;102140.0;;;1.9;84.5
52343;BME280;38277;51.972;4.624;2022-12-18T20:56:05;102140.0;;;2.0;85.0
52343;BME280;38277;51.972;4.624;2022-12-18T21:00:38;102150.0;;;2.0;85.0
52343;BME280;38277;51.972;4.624;2022-12-18T21:04:41;102120.0;;;1.9;85.5
52343;BME280;38277;51.972;4.624;2022-12-18T21:09:28;102120.0;;;2.0;85.5
52343;BME280;38277;51.972;4.624;2022-12-18T21:13:42;102120.0;;;2.0;86.0
52343;BME280;38277;51.972;4.624;2022-12-18T21:18:55;102110.0;;;2.0;86.0
52343;BME280;38277;51.972;4.624;2022-12-18T21:22:47;102100.0;;;2.0;86.5
52343;BME280;38277;51.972;4.624;2022-12-18T21:28:06;102100.0;;;2.0;86.5
52343;BME280;38277;51.972;4.624;2022-12-18T21:36:34;102070.0;;;2.1;87.0
52343;BME280;38277;51.972;4.624;2022-12-18T21:40:56;102060.0;;;2.1;87.0
52343;BME280;38277;51.972;4.624;2022-12-18T21:45:11;102060.0;;;2.1;87.5
52343;BME280;38277;51.972;4.624;2022-12-18T21:49:54;102050.0;;;2.1;87.5
52343;BME280;38277;51.972;4.624;2022-12-18T21:55:12;102050.0;;;2.1;87.5
52343;BME280;38277;51.972;4.624;2022-12-18T21:58:50;102050.0;;;2.2;88.0
52343;BME280;38277;51.972;4.624;2022-12-18T22:03:31;102040.0;;;2.2;88.0
52343;BME280;38277;51.972;4.624;2022-12-18T22:08:31;102040.0;;;2.2;88.0
52343;BME280;38277;51.972;4.624;2022-12-18T22:13:14;102030.0;;;2.2;89.0
52343;BME280;38277;51.972;4.624;2022-12-18T22:16:44;102010.0;;;2.3;88.5
52343;BME280;38277;51.972;4.624;2022-12-18T22:21:23;102010.0;;;2.3;88.5
52343;BME280;38277;51.972;4.624;2022-12-18T22:26:51;102000.0;;;2.3;88.5
52343;BME280;38277;51.972;4.624;2022-12-18T22:34:59;101980.0;;;2.4;89.0
52343;BME280;38277;51.972;4.624;2022-12-18T22:39:11;101980.0;;;2.4;89.0
52343;BME280;38277;51.972;4.624;2022-12-18T22:43:48;101990.0;;;2.5;89.0
52343;BME280;38277;51.972;4.624;2022-12-18T22:48:21;101960.0;;;2.5;89.0
52343;BME280;38277;51.972;4.624;2022-12-18T22:52:39;101950.0;;;2.5;89.0
52343;BME280;38277;51.972;4.624;2022-12-18T22:57:30;101950.0;;;2.6;89.5
52343;BME280;38277;51.972;4.624;2022-12-18T23:01:38;101950.0;;;2.6;89.5
52343;BME280;38277;51.972;4.624;2022-12-18T23:10:59;101940.0;;;2.7;89.5
52343;BME280;38277;51.972;4.624;2022-12-18T23:21:45;101920.0;;;2.7;90.0
52343;BME280;38277;51.972;4.624;2022-12-18T23:33:08;101910.0;;;2.8;90.5
52343;BME280;38277;51.972;4.624;2022-12-18T23:37:51;101900.0;;;2.8;91.0
52343;BME280;38277;51.972;4.624;2022-12-18T23:42:13;101890.0;;;2.9;91.0
52343;BME280;38277;51.972;4.624;2022-12-18T23:46:35;101880.0;;;2.9;91.5
52343;BME280;38277;51.972;4.624;2022-12-18T23:52:06;101860.0;;;3.0;91.5
